Time;durP1;ratioP1;P1;durP2;ratioP2;P2;SDS_P1;SDS_P2;PMS_P1;PMS_P2;Temp;Humidity;BMP_temperature;BMP_pressure;BME280_temperature;BME280_humidity;BME280_pressure;Samples;Min_cycle;Max_cycle;Signal;HPM_P1;HPM_P2
2022/06/15 00:01:47;;;;;;;10.10;6.07;;;22.40;26.60;;;;;;5014363;28;20418;-68
2022/06/15 00:04:13;;;;;;;14.70;7.10;;;22.50;25.20;;;;;;5032751;28;20268;-68
2022/06/15 00:06:41;;;;;;;14.70;5.90;;;22.20;28.90;;;;;;5033194;28;20215;-68
2022/06/15 00:09:07;;;;;;;13.67;6.20;;;21.80;29.50;;;;;;5037592;28;20487;-68
2022/06/15 00:11:37;;;;;;;11.73;6.77;;;21.60;29.10;;;;;;5026101;28;20849;-68
2022/06/15 00:14:06;;;;;;;10.73;6.43;;;21.90;28.50;;;;;;5041152;28;20475;-68
2022/06/15 00:16:32;;;;;;;10.97;5.97;;;21.70;29.50;;;;;;5029565;28;20424;-68
2022/06/15 00:18:57;;;;;;;8.10;6.10;;;21.60;28.40;;;;;;5029544;28;20804;-68
2022/06/15 00:21:23;;;;;;;14.87;6.27;;;21.50;29.80;;;;;;5032823;28;20648;-69
2022/06/15 00:23:50;;;;;;;12.93;6.73;;;21.50;29.20;;;;;;5037344;28;20204;-68
2022/06/15 00:26:16;;;;;;;12.73;6.27;;;21.60;27.50;;;;;;5033593;28;20220;-68
2022/06/15 00:28:42;;;;;;;8.47;5.90;;;21.60;28.50;;;;;;5032589;28;20423;-68
2022/06/15 00:31:08;;;;;;;11.57;6.30;;;21.30;30.40;;;;;;5032713;28;20498;-68
2022/06/15 00:33:34;;;;;;;15.67;6.67;;;21.50;28.80;;;;;;5035966;28;20483;-68
2022/06/15 00:36:06;;;;;;;13.87;6.57;;;21.40;28.90;;;;;;5034468;28;20908;-69
2022/06/15 00:38:37;;;;;;;14.83;6.47;;;21.20;29.60;;;;;;5032378;28;20261;-68
2022/06/15 00:41:05;;;;;;;21.57;6.50;;;21.00;29.70;;;;;;5032664;28;20422;-68
2022/06/15 00:43:35;;;;;;;9.00;6.10;;;21.40;28.80;;;;;;5032048;28;20439;-68
2022/06/15 00:46:19;;;;;;;12.63;7.20;;;21.30;29.10;;;;;;5026013;28;20930;-68
2022/06/15 00:48:48;;;;;;;11.67;6.70;;;21.10;30.80;;;;;;5032360;28;20413;-69
2022/06/15 00:51:15;;;;;;;11.40;6.60;;;20.90;31.00;;;;;;5032849;28;20477;-69
2022/06/15 00:53:40;;;;;;;12.00;6.83;;;20.90;30.10;;;;;;5026206;28;20443;-70
2022/06/15 00:56:08;;;;;;;11.43;6.47;;;20.90;30.70;;;;;;5033739;28;20645;-68
2022/06/15 00:58:37;;;;;;;12.47;7.70;;;20.90;30.80;;;;;;5030418;28;20702;-68
2022/06/15 01:01:04;;;;;;;21.50;10.17;;;20.50;31.50;;;;;;5027059;28;20419;-68
2022/06/15 01:03:29;;;;;;;14.70;10.27;;;20.30;33.60;;;;;;5024468;28;20994;-68
2022/06/15 01:06:22;;;;;;;16.93;9.37;;;20.30;34.20;;;;;;5037880;28;20440;-68
2022/06/15 01:09:04;;;;;;;18.30;9.70;;;20.40;33.70;;;;;;5027051;28;20236;-68
2022/06/15 01:11:35;;;;;;;14.03;10.80;;;20.50;33.70;;;;;;5031428;28;20849;-68
2022/06/15 01:14:42;;;;;;;20.23;11.80;;;20.50;34.60;;;;;;5023259;28;20450;-68
2022/06/15 01:17:38;;;;;;;17.07;12.00;;;20.50;35.00;;;;;;5030711;28;20431;-68
2022/06/15 01:20:21;;;;;;;17.67;11.60;;;20.50;34.60;;;;;;5030321;28;20510;-68
2022/06/15 01:23:26;;;;;;;18.47;11.00;;;20.40;35.80;;;;;;5037415;28;20432;-69
2022/06/15 01:26:29;;;;;;;18.70;10.63;;;20.50;34.20;;;;;;5027612;28;20410;-68
2022/06/15 01:29:11;;;;;;;15.43;10.00;;;20.60;34.40;;;;;;5031151;28;20503;-68
2022/06/15 01:32:03;;;;;;;17.00;9.50;;;20.30;35.60;;;;;;5026254;28;20514;-68
2022/06/15 01:34:44;;;;;;;15.97;9.97;;;20.30;33.90;;;;;;5025491;28;20540;-69
2022/06/15 01:37:38;;;;;;;16.00;9.63;;;20.20;36.60;;;;;;5012014;28;20479;-68
2022/06/15 01:40:22;;;;;;;15.90;9.27;;;20.20;36.10;;;;;;5023076;28;20505;-68
2022/06/15 01:42:56;;;;;;;11.10;7.50;;;20.20;35.90;;;;;;5031153;28;20390;-68
2022/06/15 01:45:25;;;;;;;13.57;7.13;;;20.40;31.40;;;;;;5029968;28;21138;-68
2022/06/15 01:47:53;;;;;;;15.90;7.57;;;20.50;30.90;;;;;;5034398;28;20434;-70
2022/06/15 01:50:21;;;;;;;19.00;6.80;;;20.80;30.30;;;;;;5026922;28;20475;-68
2022/06/15 01:52:52;;;;;;;12.70;6.77;;;20.90;30.00;;;;;;5031025;28;20778;-69
2022/06/15 01:55:30;;;;;;;14.00;6.73;;;20.80;30.40;;;;;;5031306;28;20401;-68
2022/06/15 01:58:01;;;;;;;13.70;6.57;;;20.70;31.30;;;;;;5032770;28;20400;-69
2022/06/15 02:00:27;;;;;;;20.47;6.80;;;20.90;28.30;;;;;;5033796;28;20427;-67
2022/06/15 02:03:23;;;;;;;11.00;6.73;;;20.80;29.40;;;;;;5035469;28;20480;-67
2022/06/15 02:06:06;;;;;;;13.13;6.57;;;20.70;29.60;;;;;;5033113;28;20410;-67
2022/06/15 02:08:50;;;;;;;19.00;6.90;;;20.50;31.60;;;;;;5032608;28;20391;-68
2022/06/15 02:11:31;;;;;;;14.53;8.00;;;20.40;33.20;;;;;;5025397;28;20465;-67
2022/06/15 02:14:24;;;;;;;12.33;8.53;;;20.20;33.60;;;;;;5013670;28;20455;-67
2022/06/15 02:17:10;;;;;;;15.30;9.20;;;19.90;34.40;;;;;;5014141;28;20399;-67
2022/06/15 02:19:41;;;;;;;17.07;10.20;;;19.70;35.20;;;;;;5018807;28;20851;-69
2022/06/15 02:22:13;;;;;;;16.90;8.17;;;19.80;36.10;;;;;;5009768;28;20793;-68
2022/06/15 02:24:40;;;;;;;13.10;8.80;;;19.90;33.10;;;;;;5031004;28;20463;-68
2022/06/15 02:27:08;;;;;;;22.00;8.93;;;19.80;34.90;;;;;;5036522;28;20484;-69
2022/06/15 02:29:37;;;;;;;16.93;8.40;;;19.30;34.70;;;;;;5036324;28;20468;-68
2022/06/15 02:32:10;;;;;;;13.57;9.07;;;18.90;35.20;;;;;;5037674;28;20428;-68
2022/06/15 02:34:36;;;;;;;16.30;9.37;;;18.20;38.50;;;;;;5031304;28;20923;-68
2022/06/15 02:37:03;;;;;;;18.63;8.90;;;18.00;39.80;;;;;;5036585;28;20499;-67
2022/06/15 02:39:29;;;;;;;18.10;9.87;;;18.20;38.40;;;;;;5014795;28;20825;-68
2022/06/15 02:42:24;;;;;;;21.10;11.07;;;18.20;40.10;;;;;;5029126;28;20516;-68
2022/06/15 02:44:52;;;;;;;18.90;11.50;;;18.30;40.10;;;;;;5027756;28;20311;-68
2022/06/15 02:47:19;;;;;;;15.70;11.13;;;18.70;39.70;;;;;;5034523;28;20516;-69
2022/06/15 02:49:48;;;;;;;17.57;11.33;;;18.70;38.90;;;;;;5031776;28;20557;-68
2022/06/15 02:52:15;;;;;;;15.70;9.90;;;18.80;39.10;;;;;;5037838;28;20437;-67
2022/06/15 02:54:48;;;;;;;20.60;10.87;;;18.60;38.40;;;;;;5026561;28;20480;-69
2022/06/15 02:57:15;;;;;;;22.23;10.13;;;18.50;40.30;;;;;;5034582;28;20506;-67
2022/06/15 02:59:41;;;;;;;15.90;10.20;;;18.30;40.10;;;;;;5034630;28;20924;-67
2022/06/15 03:02:07;;;;;;;20.93;11.20;;;17.90;41.60;;;;;;5032517;28;20475;-69
2022/06/15 03:04:33;;;;;;;20.57;11.90;;;17.90;41.00;;;;;;5028895;28;20584;-67
2022/06/15 03:06:59;;;;;;;20.27;11.50;;;17.30;45.70;;;;;;5017865;28;20422;-69
2022/06/15 03:09:25;;;;;;;19.37;11.00;;;17.60;45.70;;;;;;5014616;28;20219;-67
2022/06/15 03:11:51;;;;;;;15.80;10.50;;;17.60;43.90;;;;;;5018500;28;20217;-67
2022/06/15 03:14:17;;;;;;;17.17;11.17;;;18.00;44.00;;;;;;5041472;28;20216;-67
2022/06/15 03:16:43;;;;;;;16.60;11.70;;;18.50;42.00;;;;;;5031873;28;20423;-67
2022/06/15 03:19:10;;;;;;;25.33;11.03;;;18.20;42.10;;;;;;5034221;28;20413;-67
2022/06/15 03:21:36;;;;;;;17.20;11.30;;;18.30;41.90;;;;;;5034260;28;20418;-68
2022/06/15 03:24:02;;;;;;;20.90;11.60;;;18.40;42.40;;;;;;5036911;28;20457;-68
2022/06/15 03:26:27;;;;;;;22.73;10.27;;;18.50;41.10;;;;;;5027916;28;20427;-69
2022/06/15 03:28:53;;;;;;;18.50;10.60;;;18.40;42.40;;;;;;5052618;28;20214;-67
2022/06/15 03:31:19;;;;;;;21.33;11.37;;;18.40;41.80;;;;;;5039185;28;20205;-68
2022/06/15 03:33:44;;;;;;;19.10;10.70;;;18.20;42.30;;;;;;5013826;28;20199;-69
2022/06/15 03:36:10;;;;;;;16.80;11.10;;;18.30;41.60;;;;;;5032435;28;20194;-68
2022/06/15 03:38:36;;;;;;;17.17;11.30;;;18.30;41.60;;;;;;5030747;28;20195;-67
2022/06/15 03:41:01;;;;;;;24.47;12.07;;;18.20;42.50;;;;;;5033636;28;20184;-67
2022/06/15 03:43:27;;;;;;;17.50;11.77;;;18.30;42.20;;;;;;5032883;28;20559;-67
2022/06/15 03:45:55;;;;;;;19.23;10.43;;;18.30;42.70;;;;;;5035967;28;20528;-67
2022/06/15 03:48:21;;;;;;;19.73;10.83;;;18.20;43.20;;;;;;5025061;28;20436;-67
2022/06/15 03:50:47;;;;;;;18.20;11.23;;;18.30;42.90;;;;;;5031524;28;20964;-68
2022/06/15 03:53:12;;;;;;;15.50;11.37;;;18.30;41.90;;;;;;5022983;28;20673;-67
2022/06/15 03:55:40;;;;;;;21.53;11.30;;;18.50;41.90;;;;;;5031298;28;20238;-67
2022/06/15 03:58:05;;;;;;;18.07;11.00;;;18.80;40.40;;;;;;5027862;28;20178;-68
2022/06/15 04:00:33;;;;;;;19.97;11.90;;;18.60;41.50;;;;;;5044154;28;20505;-67
2022/06/15 04:02:59;;;;;;;25.13;11.83;;;18.50;42.00;;;;;;5016468;28;20424;-68
2022/06/15 04:05:41;;;;;;;27.43;11.70;;;18.50;43.10;;;;;;5013201;28;20416;-68
2022/06/15 04:10:58;;;;;;;752.10;46.47;;;18.60;42.30;;;;;;5032349;28;20458;-67
2022/06/15 04:13:23;;;;;;;421.77;33.80;;;18.50;42.00;;;;;;5029348;28;20479;-67
2022/06/15 04:15:49;;;;;;;103.03;13.03;;;18.50;43.30;;;;;;5028346;28;20212;-67
2022/06/15 04:18:15;;;;;;;642.33;47.00;;;18.50;43.80;;;;;;5032461;28;20616;-69
2022/06/15 04:20:41;;;;;;;28.70;11.13;;;18.60;42.60;;;;;;5026889;28;20184;-69
2022/06/15 04:23:16;;;;;;;972.50;95.43;;;18.70;43.00;;;;;;5032493;28;20232;-67
2022/06/15 04:26:05;;;;;;;903.53;71.07;;;18.70;42.60;;;;;;5029197;28;20429;-67
2022/06/15 04:28:33;;;;;;;302.37;34.30;;;18.70;42.40;;;;;;5030489;28;20447;-67
2022/06/15 04:30:58;;;;;;;26.03;11.07;;;18.80;43.60;;;;;;5024527;28;20487;-67
2022/06/15 04:33:24;;;;;;;1835.87;113.27;;;18.80;42.00;;;;;;5032704;28;20958;-67
2022/06/15 04:35:50;;;;;;;1366.20;80.00;;;18.80;41.20;;;;;;5035569;28;20701;-68
2022/06/15 04:38:16;;;;;;;195.63;19.10;;;18.90;40.70;;;;;;5031321;28;20442;-67
2022/06/15 04:40:42;;;;;;;818.53;52.80;;;19.00;40.70;;;;;;5023818;28;20226;-68
2022/06/15 04:43:08;;;;;;;1027.27;71.70;;;19.10;40.30;;;;;;5032401;28;20447;-68
2022/06/15 04:45:35;;;;;;;1424.47;76.23;;;19.10;39.70;;;;;;5020037;28;20259;-67
2022/06/15 04:48:01;;;;;;;593.57;36.77;;;19.00;40.60;;;;;;5024185;28;21029;-67
2022/06/15 04:50:27;;;;;;;109.50;23.10;;;18.90;39.80;;;;;;5032089;28;20856;-68
2022/06/15 04:52:53;;;;;;;426.67;47.10;;;18.60;40.80;;;;;;5031865;28;20423;-67
2022/06/15 04:55:21;;;;;;;495.53;74.07;;;18.80;41.30;;;;;;5032994;28;20835;-68
2022/06/15 04:57:48;;;;;;;24.97;10.60;;;19.10;40.90;;;;;;5023913;28;20421;-67
2022/06/15 05:00:17;;;;;;;23.67;11.60;;;19.30;40.00;;;;;;5031272;28;20415;-70
2022/06/15 05:02:43;;;;;;;116.67;13.80;;;19.30;39.20;;;;;;5029863;28;20437;-67
2022/06/15 05:05:08;;;;;;;131.73;13.90;;;18.80;39.20;;;;;;5006184;28;20453;-70
2022/06/15 05:07:34;;;;;;;40.90;12.17;;;18.30;41.40;;;;;;5037110;28;20662;-68
2022/06/15 05:10:00;;;;;;;301.33;24.07;;;18.40;41.30;;;;;;5037568;28;20222;-67
2022/06/15 05:12:26;;;;;;;23.73;10.30;;;18.20;42.20;;;;;;5024304;28;20927;-69
2022/06/15 05:14:52;;;;;;;1227.43;69.80;;;17.90;42.50;;;;;;5031868;28;20232;-67
2022/06/15 05:17:19;;;;;;;488.77;42.70;;;17.60;45.20;;;;;;5032041;28;20694;-67
2022/06/15 05:19:45;;;;;;;55.90;13.23;;;17.70;46.70;;;;;;5032492;28;20196;-67
2022/06/15 05:22:11;;;;;;;632.47;46.70;;;18.10;45.20;;;;;;5023396;28;20512;-67
2022/06/15 05:24:38;;;;;;;123.80;16.80;;;17.80;43.90;;;;;;5031851;28;20425;-68
2022/06/15 05:27:04;;;;;;;105.53;18.80;;;17.90;44.90;;;;;;5015462;28;20451;-67
2022/06/15 05:29:30;;;;;;;573.20;36.37;;;18.00;43.70;;;;;;5034755;28;20493;-67
2022/06/15 05:31:56;;;;;;;114.53;14.90;;;18.00;44.40;;;;;;5023496;28;20429;-68
2022/06/15 05:34:23;;;;;;;197.50;22.80;;;18.30;43.70;;;;;;5011892;28;20435;-67
2022/06/15 05:36:49;;;;;;;29.53;14.67;;;18.50;43.10;;;;;;5012129;28;20480;-67
2022/06/15 05:39:14;;;;;;;143.77;20.90;;;18.70;41.90;;;;;;5017626;28;20531;-67
2022/06/15 05:41:41;;;;;;;404.40;42.47;;;19.00;40.70;;;;;;5031144;28;20512;-67
2022/06/15 05:44:49;;;;;;;33.67;14.50;;;18.90;41.70;;;;;;5031633;28;20188;-67
2022/06/15 05:47:00;;;;;;;971.33;69.10;;;18.60;42.90;;;;;;5025801;28;20421;-68
2022/06/15 05:49:26;;;;;;;255.53;28.80;;;18.90;41.50;;;;;;5031024;28;20417;-68
2022/06/15 05:51:52;;;;;;;253.50;20.67;;;19.00;40.80;;;;;;5034325;28;20921;-68
2022/06/15 05:54:18;;;;;;;445.50;35.50;;;19.30;41.00;;;;;;5012404;28;20438;-68
2022/06/15 05:56:44;;;;;;;369.77;25.40;;;19.40;40.00;;;;;;5030112;28;20309;-67
2022/06/15 05:59:09;;;;;;;762.57;51.63;;;19.40;40.00;;;;;;5029967;28;20476;-67
2022/06/15 06:01:37;;;;;;;232.53;27.13;;;19.90;39.30;;;;;;5034809;28;20213;-68
2022/06/15 06:04:03;;;;;;;1376.67;84.67;;;19.70;38.30;;;;;;5026106;28;20206;-68
2022/06/15 06:06:30;;;;;;;29.90;12.77;;;19.90;37.00;;;;;;5037525;28;20439;-68
2022/06/15 06:08:56;;;;;;;1076.23;65.00;;;20.10;37.10;;;;;;5036708;28;20456;-68
2022/06/15 06:11:22;;;;;;;37.37;12.60;;;19.90;36.40;;;;;;5036312;28;20579;-68
2022/06/15 06:13:48;;;;;;;325.13;21.83;;;20.20;37.10;;;;;;5032576;28;20945;-68
2022/06/15 06:16:14;;;;;;;35.47;14.47;;;20.60;37.20;;;;;;5017153;28;20408;-68
2022/06/15 06:18:40;;;;;;;27.87;9.93;;;21.00;36.90;;;;;;5035848;28;20528;-68
2022/06/15 06:21:06;;;;;;;30.80;10.50;;;21.30;37.10;;;;;;5028369;28;20252;-68
2022/06/15 06:23:33;;;;;;;32.47;10.20;;;20.90;34.80;;;;;;5035829;28;20202;-68
2022/06/15 06:25:59;;;;;;;35.07;11.43;;;20.60;35.70;;;;;;5032098;28;20473;-68
2022/06/15 06:28:41;;;;;;;34.00;9.10;;;20.70;36.20;;;;;;5034504;28;20461;-68
2022/06/15 06:31:09;;;;;;;32.60;10.07;;;20.70;35.70;;;;;;5034937;28;20505;-68
2022/06/15 06:33:37;;;;;;;33.07;8.70;;;20.70;36.20;;;;;;5032997;28;21013;-68
2022/06/15 06:36:13;;;;;;;34.30;9.13;;;20.60;36.60;;;;;;5032610;28;20467;-69
2022/06/15 06:38:39;;;;;;;37.53;9.00;;;21.10;35.80;;;;;;5018203;28;20422;-69
2022/06/15 06:41:05;;;;;;;43.93;9.03;;;21.60;35.20;;;;;;5021142;28;20543;-69
2022/06/15 06:43:30;;;;;;;45.53;9.47;;;21.40;34.60;;;;;;5029053;28;20294;-68
2022/06/15 06:45:56;;;;;;;36.03;9.93;;;21.10;34.90;;;;;;5035665;28;20503;-70
2022/06/15 06:48:22;;;;;;;40.70;9.03;;;21.50;34.20;;;;;;5037436;28;20182;-70
2022/06/15 06:50:47;;;;;;;38.80;9.33;;;21.50;34.20;;;;;;5034727;28;20202;-70
2022/06/15 06:53:14;;;;;;;39.70;10.77;;;21.40;34.60;;;;;;5035576;28;20235;-69
2022/06/15 06:55:40;;;;;;;45.07;11.00;;;21.30;35.10;;;;;;5027104;28;20173;-70
2022/06/15 06:58:06;;;;;;;45.27;11.80;;;21.20;35.50;;;;;;5040514;28;20496;-70
2022/06/15 07:00:34;;;;;;;53.33;10.47;;;21.50;35.00;;;;;;5035805;28;20452;-71
2022/06/15 07:03:01;;;;;;;41.03;9.70;;;21.50;35.00;;;;;;5043156;28;20557;-70
2022/06/15 07:05:27;;;;;;;170.57;13.83;;;21.50;35.00;;;;;;5037205;28;20434;-70
2022/06/15 07:07:54;;;;;;;53.33;9.20;;;21.20;34.70;;;;;;5030669;28;20420;-69
2022/06/15 07:10:20;;;;;;;58.77;9.33;;;21.70;34.80;;;;;;5034153;28;20608;-70
2022/06/15 07:12:45;;;;;;;56.00;9.20;;;22.00;34.00;;;;;;5033942;28;20432;-70
2022/06/15 07:15:13;;;;;;;41.60;9.63;;;21.60;34.90;;;;;;5040263;28;20806;-69
2022/06/15 07:17:40;;;;;;;63.30;10.00;;;21.50;35.50;;;;;;5024985;28;20704;-69
2022/06/15 07:20:08;;;;;;;54.17;8.80;;;21.80;34.90;;;;;;5034379;28;20463;-70
2022/06/15 07:22:34;;;;;;;52.43;8.20;;;22.00;34.40;;;;;;5030300;28;20455;-70
2022/06/15 07:25:00;;;;;;;41.93;8.80;;;22.30;34.00;;;;;;5037429;28;20464;-70
2022/06/15 07:27:25;;;;;;;41.20;9.33;;;22.10;33.70;;;;;;5041524;28;20527;-69
2022/06/15 07:29:53;;;;;;;232.10;19.63;;;22.30;33.90;;;;;;5032879;28;20224;-70
2022/06/15 07:32:19;;;;;;;23.37;9.90;;;22.50;32.70;;;;;;5033499;28;20190;-70
2022/06/15 07:34:44;;;;;;;15.80;8.40;;;22.70;32.80;;;;;;5044956;28;20475;-70
2022/06/15 07:37:10;;;;;;;37.57;8.23;;;22.50;33.60;;;;;;5038291;28;20187;-68
2022/06/15 07:39:37;;;;;;;21.43;8.43;;;22.20;33.40;;;;;;5027982;28;20187;-68
2022/06/15 07:42:09;;;;;;;1999.90;999.90;;;22.00;33.70;;;;;;5036648;28;20201;-70
2022/06/15 07:44:36;;;;;;;1999.90;999.90;;;22.20;33.00;;;;;;5027437;28;20518;-70
2022/06/15 07:49:57;;;;;;;12.70;7.60;;;22.50;31.80;;;;;;5025220;28;20490;-69
2022/06/15 07:52:36;;;;;;;15.13;7.90;;;22.40;32.30;;;;;;5033347;28;20483;-69
2022/06/15 07:55:02;;;;;;;12.83;6.97;;;22.50;33.00;;;;;;5033457;28;20449;-69
2022/06/15 07:57:28;;;;;;;15.20;7.47;;;22.60;31.30;;;;;;5033594;28;20418;-69
2022/06/15 07:59:54;;;;;;;25.53;8.17;;;23.10;31.10;;;;;;5034943;28;20973;-69
2022/06/15 08:02:20;;;;;;;17.83;8.83;;;23.50;30.30;;;;;;5042295;28;20604;-70
2022/06/15 08:04:46;;;;;;;13.53;8.10;;;23.70;29.30;;;;;;5021705;28;20568;-70
2022/06/15 08:07:13;;;;;;;14.97;8.00;;;23.50;29.50;;;;;;5032169;28;20418;-69
2022/06/15 08:09:39;;;;;;;16.40;8.00;;;23.10;30.80;;;;;;5032756;28;20207;-69
2022/06/15 08:12:12;;;;;;;10.93;7.67;;;23.00;31.00;;;;;;5036725;28;20579;-69
2022/06/15 08:14:47;;;;;;;16.30;7.40;;;23.00;30.70;;;;;;5036690;28;20538;-70
2022/06/15 08:17:51;;;;;;;17.50;7.47;;;23.90;30.00;;;;;;5023782;28;20459;-70
2022/06/15 08:20:31;;;;;;;13.37;8.03;;;23.70;29.80;;;;;;5018137;28;20430;-70
2022/06/15 08:23:02;;;;;;;15.20;7.63;;;23.90;29.60;;;;;;5031720;28;20473;-69
2022/06/15 08:25:33;;;;;;;15.50;7.10;;;23.70;30.10;;;;;;5035962;28;20438;-69
2022/06/15 08:27:59;;;;;;;12.60;7.60;;;23.80;30.20;;;;;;5033790;28;20858;-69
2022/06/15 08:30:26;;;;;;;12.20;7.43;;;23.70;29.70;;;;;;5037822;28;20996;-67
2022/06/15 08:32:52;;;;;;;16.20;8.10;;;24.20;30.10;;;;;;5023979;28;20423;-69
2022/06/15 08:35:18;;;;;;;11.27;8.37;;;24.10;29.40;;;;;;5033324;28;20431;-70
2022/06/15 08:37:44;;;;;;;11.70;7.80;;;24.40;28.70;;;;;;5027369;28;20208;-69
2022/06/15 08:40:11;;;;;;;11.37;7.87;;;24.70;28.70;;;;;;5032098;28;20968;-69
2022/06/15 08:42:52;;;;;;;19.60;7.90;;;24.90;27.70;;;;;;5033399;28;20214;-69
2022/06/15 08:45:30;;;;;;;15.23;6.37;;;24.90;28.40;;;;;;5025433;28;20800;-69
2022/06/15 08:48:02;;;;;;;12.60;6.73;;;25.10;28.00;;;;;;5037257;28;20517;-68
2022/06/15 08:50:40;;;;;;;11.23;6.70;;;24.50;28.00;;;;;;5030054;28;20827;-70
2022/06/15 08:53:32;;;;;;;11.10;6.73;;;25.30;26.70;;;;;;5032195;28;20403;-69
2022/06/15 08:56:10;;;;;;;13.90;6.93;;;25.40;26.40;;;;;;5031690;28;20464;-70
2022/06/15 08:59:00;;;;;;;10.63;7.07;;;26.10;26.60;;;;;;5027814;28;20507;-69
2022/06/15 09:01:38;;;;;;;11.70;7.80;;;26.30;25.10;;;;;;5034916;28;20445;-69
2022/06/15 09:04:28;;;;;;;15.80;6.10;;;25.60;26.10;;;;;;5035231;28;20445;-69
2022/06/15 09:07:20;;;;;;;9.83;6.47;;;24.80;27.50;;;;;;5033308;28;20534;-69
2022/06/15 09:10:09;;;;;;;12.63;6.50;;;25.10;26.90;;;;;;5036898;28;20803;-70
2022/06/15 09:13:01;;;;;;;10.90;6.73;;;25.70;28.70;;;;;;5028241;28;20442;-69
2022/06/15 09:15:37;;;;;;;11.90;7.70;;;26.20;26.70;;;;;;5042963;28;20439;-69
2022/06/15 09:18:10;;;;;;;18.53;7.40;;;25.20;27.40;;;;;;5023983;28;20398;-68
2022/06/15 09:20:43;;;;;;;8.43;5.97;;;25.20;27.00;;;;;;5038308;28;20514;-69
2022/06/15 09:23:46;;;;;;;24.53;7.23;;;25.70;26.50;;;;;;5025244;28;20455;-68
2022/06/15 09:26:22;;;;;;;15.50;6.90;;;25.70;26.60;;;;;;4970953;28;20422;-69
2022/06/15 09:29:17;;;;;;;9.20;5.80;;;26.50;25.80;;;;;;4974634;28;20453;-70
2022/06/15 09:31:51;;;;;;;13.37;6.40;;;27.10;24.70;;;;;;4972985;28;20450;-67
2022/06/15 09:34:45;;;;;;;13.77;6.30;;;26.70;24.80;;;;;;4981641;28;20568;-69
2022/06/15 09:37:15;;;;;;;13.40;6.90;;;26.20;25.80;;;;;;4968825;28;20472;-70
2022/06/15 09:39:41;;;;;;;20.90;6.80;;;27.00;25.80;;;;;;4970089;28;20894;-69
2022/06/15 09:42:12;;;;;;;16.90;6.50;;;26.70;25.20;;;;;;4973970;28;20964;-69
2022/06/15 09:45:01;;;;;;;11.87;6.37;;;26.10;25.50;;;;;;4964894;28;20504;-69
2022/06/15 09:47:38;;;;;;;13.00;6.27;;;26.30;25.50;;;;;;4974180;28;20455;-70
2022/06/15 09:50:09;;;;;;;16.43;5.70;;;27.10;23.80;;;;;;4977842;28;20478;-69
2022/06/15 09:52:54;;;;;;;11.37;6.40;;;27.50;24.20;;;;;;4977116;28;20502;-70
2022/06/15 09:55:35;;;;;;;13.20;5.70;;;27.00;25.00;;;;;;4974702;28;20944;-69
2022/06/15 09:58:01;;;;;;;13.73;5.83;;;27.10;23.60;;;;;;4969387;28;20884;-70
2022/06/15 10:00:28;;;;;;;10.57;6.10;;;26.90;22.90;;;;;;4970062;28;20566;-70
2022/06/15 10:03:04;;;;;;;21.53;6.00;;;26.40;24.10;;;;;;5037796;28;20442;-70
2022/06/15 10:05:35;;;;;;;10.80;5.87;;;26.70;23.70;;;;;;5025877;28;20563;-68
2022/06/15 10:08:05;;;;;;;9.57;5.80;;;27.00;23.00;;;;;;5021400;28;20485;-70
2022/06/15 10:10:53;;;;;;;9.50;5.37;;;27.10;22.30;;;;;;5030024;28;20463;-70
2022/06/15 10:13:18;;;;;;;13.00;5.50;;;27.90;24.70;;;;;;5027403;28;20857;-70
2022/06/15 10:15:44;;;;;;;12.40;5.40;;;27.60;21.30;;;;;;5029002;28;20450;-70
2022/06/15 10:18:36;;;;;;;8.90;5.43;;;28.50;21.20;;;;;;5033056;28;20685;-70
2022/06/15 10:21:13;;;;;;;9.70;5.40;;;28.90;19.40;;;;;;5035754;28;20306;-70
2022/06/15 10:24:07;;;;;;;14.63;5.77;;;28.40;19.40;;;;;;5025307;28;20984;-69
2022/06/15 10:26:42;;;;;;;9.90;5.07;;;27.60;21.20;;;;;;5023961;28;20446;-70
2022/06/15 10:29:18;;;;;;;11.87;5.10;;;28.00;20.40;;;;;;5032441;28;20438;-70
2022/06/15 10:32:17;;;;;;;10.43;4.90;;;28.30;19.40;;;;;;5039575;28;20516;-70
2022/06/15 10:34:45;;;;;;;13.03;4.90;;;28.70;18.50;;;;;;5027527;28;20443;-70
2022/06/15 10:37:26;;;;;;;9.40;4.70;;;29.30;18.20;;;;;;5023398;28;20418;-70
2022/06/15 10:39:54;;;;;;;9.00;4.50;;;29.90;18.50;;;;;;5019414;28;20412;-70
2022/06/15 10:42:29;;;;;;;10.53;4.70;;;30.30;17.60;;;;;;5030719;28;20422;-70
2022/06/15 10:45:17;;;;;;;10.17;5.30;;;30.10;16.40;;;;;;5030763;28;20901;-70
2022/06/15 10:47:53;;;;;;;7.17;4.33;;;30.00;17.10;;;;;;5033005;28;20561;-69
2022/06/15 10:50:28;;;;;;;7.80;4.40;;;29.90;15.80;;;;;;5032021;28;20466;-69
2022/06/15 10:53:03;;;;;;;9.40;4.50;;;28.70;17.80;;;;;;5029058;28;20973;-70
2022/06/15 11:04:17;;;;;;;8.80;4.50;;;28.40;16.40;;;;;;5037643;28;20465;-70
2022/06/15 11:06:49;;;;;;;9.50;4.50;;;29.80;16.30;;;;;;5019999;28;20407;-70
2022/06/15 11:09:22;;;;;;;6.10;4.53;;;30.90;14.00;;;;;;5028813;28;20438;-70
2022/06/15 11:11:49;;;;;;;5.10;3.80;;;31.10;14.00;;;;;;5034088;28;20452;-70
2022/06/15 11:14:31;;;;;;;10.53;3.73;;;30.30;13.30;;;;;;5036779;28;20552;-69
2022/06/15 11:20:35;;;;;;;5.63;3.90;;;29.40;13.60;;;;;;5030415;28;20488;-70
2022/06/15 11:23:16;;;;;;;8.20;3.90;;;30.30;15.60;;;;;;5040502;28;20511;-70
2022/06/15 11:25:54;;;;;;;10.00;4.20;;;30.00;13.30;;;;;;5037539;28;20590;-69
2022/06/15 11:28:32;;;;;;;8.47;4.17;;;30.30;12.70;;;;;;5035639;28;20431;-70
2022/06/15 11:31:07;;;;;;;6.17;3.30;;;30.70;14.30;;;;;;5033306;28;20516;-71
2022/06/15 11:33:43;;;;;;;5.47;3.67;;;31.90;11.90;;;;;;5034089;28;20418;-73
2022/06/15 11:36:46;;;;;;;6.27;3.73;;;34.00;11.20;;;;;;5028599;28;20932;-71
2022/06/15 11:39:19;;;;;;;9.87;3.60;;;33.70;8.50;;;;;;4971551;28;20500;-71
2022/06/15 11:41:53;;;;;;;8.00;3.00;;;34.50;8.90;;;;;;4972617;28;20421;-71
2022/06/15 11:44:24;;;;;;;5.67;3.73;;;35.20;7.00;;;;;;4972575;28;20645;-71
2022/06/15 11:46:55;;;;;;;264.67;10.80;;;35.70;8.40;;;;;;4954632;28;20442;-72
2022/06/15 11:49:26;;;;;;;177.80;6.53;;;35.10;7.10;;;;;;4972771;28;20445;-71
2022/06/15 11:52:04;;;;;;;12.10;3.00;;;34.90;10.00;;;;;;4971652;28;20441;-71
2022/06/15 11:55:08;;;;;;;6.20;3.00;;;35.30;8.00;;;;;;4977773;28;20915;-71
2022/06/15 11:57:58;;;;;;;3.57;3.00;;;34.80;7.80;;;;;;4973411;28;20394;-71
2022/06/15 12:00:26;;;;;;;8.03;3.57;;;35.00;6.90;;;;;;4971711;28;20492;-71
2022/06/15 12:03:27;;;;;;;6.40;3.00;;;35.60;8.50;;;;;;4975045;28;20525;-71
2022/06/15 12:06:17;;;;;;;7.57;2.80;;;36.40;7.30;;;;;;4971024;28;20544;-71
2022/06/15 12:09:02;;;;;;;10.17;3.80;;;36.40;8.40;;;;;;4980220;28;20422;-72
2022/06/15 12:14:34;;;;;;;6.10;2.80;;;37.40;8.80;;;;;;5034377;28;21011;-72
2022/06/15 12:17:15;;;;;;;6.47;3.23;;;37.90;8.30;;;;;;5038571;28;20515;-72
2022/06/15 12:20:17;;;;;;;3.83;2.67;;;38.10;7.30;;;;;;5039426;28;20426;-71
2022/06/15 12:23:06;;;;;;;5.73;2.70;;;38.00;4.80;;;;;;5015548;28;20950;-72
2022/06/15 12:25:56;;;;;;;4.17;2.70;;;38.10;5.10;;;;;;5013189;28;20396;-72
2022/06/15 12:28:27;;;;;;;4.80;3.10;;;38.30;5.10;;;;;;5037556;28;20811;-72
2022/06/15 12:30:56;;;;;;;6.50;3.10;;;38.70;3.90;;;;;;5028259;28;20490;-72
2022/06/15 12:33:28;;;;;;;5.23;3.00;;;37.90;4.30;;;;;;5035599;28;20446;-70
2022/06/15 12:36:12;;;;;;;5.33;2.90;;;37.20;4.20;;;;;;5038268;28;20792;-71
2022/06/15 12:39:10;;;;;;;11.83;3.10;;;35.60;7.20;;;;;;5035394;28;20954;-71
2022/06/15 12:44:40;;;;;;;3.83;3.17;;;35.40;6.60;;;;;;5037127;28;20528;-72
2022/06/15 12:47:13;;;;;;;4.10;3.23;;;35.50;8.90;;;;;;5033711;28;20422;-71
2022/06/15 12:49:44;;;;;;;9.70;3.20;;;35.10;10.40;;;;;;5042505;28;20489;-71
2022/06/15 12:52:27;;;;;;;7.03;3.57;;;34.90;8.30;;;;;;5042158;28;20440;-72
2022/06/15 12:55:07;;;;;;;10.77;3.73;;;34.60;7.60;;;;;;5040081;28;20580;-71
2022/06/15 12:57:54;;;;;;;4.03;3.43;;;33.80;9.50;;;;;;5025299;28;20426;-71
2022/06/15 13:00:35;;;;;;;7.67;3.60;;;34.30;9.30;;;;;;5037272;28;20931;-71
2022/06/15 13:03:29;;;;;;;6.70;3.73;;;34.70;9.50;;;;;;5041104;28;20520;-72
2022/06/15 13:06:22;;;;;;;5.10;3.67;;;33.80;8.40;;;;;;5026893;28;20997;-71
2022/06/15 13:09:15;;;;;;;6.63;3.50;;;34.30;10.00;;;;;;5034981;28;20437;-72
2022/06/15 13:11:58;;;;;;;10.33;3.40;;;34.40;10.80;;;;;;5031656;28;20874;-73
2022/06/15 13:14:28;;;;;;;7.60;3.70;;;34.60;8.80;;;;;;5037370;28;20473;-72
2022/06/15 13:17:11;;;;;;;7.27;4.10;;;35.20;8.20;;;;;;5046370;28;20434;-73
2022/06/15 13:19:50;;;;;;;4.73;3.60;;;35.20;10.00;;;;;;5028242;28;20546;-71
2022/06/15 13:22:19;;;;;;;6.47;3.50;;;35.20;10.30;;;;;;5021044;28;20408;-72
2022/06/15 13:25:07;;;;;;;5.00;3.60;;;34.80;10.30;;;;;;5034001;28;21020;-73
2022/06/15 13:27:45;;;;;;;5.30;3.83;;;34.60;8.90;;;;;;5030054;28;20525;-71